createdAt,value
2018-02-15T00:00:12.994Z,25.80
2018-02-15T00:02:40.442Z,24.90
2018-02-15T00:05:07.881Z,24.63
2018-02-15T00:07:35.334Z,27.45
2018-02-15T00:10:02.793Z,26.50
2018-02-15T00:12:30.239Z,27.37
2018-02-15T00:14:57.683Z,25.40
2018-02-15T00:17:25.127Z,26.30
2018-02-15T00:19:52.574Z,25.95
2018-02-15T00:22:20.015Z,25.80
2018-02-15T00:24:47.458Z,25.60
2018-02-15T00:27:15.674Z,24.58
2018-02-15T00:29:43.110Z,23.95
2018-02-15T00:32:10.566Z,23.40
2018-02-15T00:34:38.043Z,24.77
2018-02-15T00:37:05.479Z,24.42
2018-02-15T00:39:33.680Z,22.27
2018-02-15T00:42:01.916Z,23.40
2018-02-15T00:44:29.358Z,25.08
2018-02-15T00:46:57.558Z,23.65
2018-02-15T00:49:25.767Z,24.65
2018-02-15T00:51:53.202Z,24.83
2018-02-15T00:54:20.650Z,23.57
2018-02-15T00:56:48.097Z,23.77
2018-02-15T00:59:16.306Z,23.73
2018-02-15T01:01:44.518Z,23.80
2018-02-15T01:04:11.965Z,23.70
2018-02-15T01:06:40.959Z,23.38
2018-02-15T01:09:08.395Z,22.92
2018-02-15T01:11:35.842Z,21.33
2018-02-15T01:14:04.071Z,22.58
2018-02-15T01:16:31.502Z,22.00
2018-02-15T01:18:58.959Z,20.80
2018-02-15T01:21:26.394Z,22.67
2018-02-15T01:23:54.612Z,22.70
2018-02-15T01:26:22.054Z,22.45
2018-02-15T01:28:49.494Z,21.52
2018-02-15T01:31:16.930Z,20.60
2018-02-15T01:33:45.145Z,21.20
2018-02-15T01:36:12.581Z,20.95
2018-02-15T01:38:40.037Z,22.60
2018-02-15T01:41:07.471Z,22.58
2018-02-15T01:43:35.683Z,21.98
2018-02-15T01:46:03.126Z,21.45
2018-02-15T01:48:30.574Z,22.23
2018-02-15T01:50:58.019Z,20.73
2018-02-15T01:53:25.462Z,22.37
2018-02-15T01:55:52.923Z,21.37
2018-02-15T01:58:20.360Z,21.35
2018-02-15T02:00:47.811Z,22.35
2018-02-15T02:03:15.247Z,22.33
2018-02-15T02:05:42.686Z,22.70
2018-02-15T02:08:10.900Z,21.27
2018-02-15T02:10:38.346Z,21.62
2018-02-15T02:13:05.800Z,22.13
2018-02-15T02:15:33.238Z,21.50
2018-02-15T02:18:00.682Z,21.65
2018-02-15T02:20:28.126Z,20.95
2018-02-15T02:22:55.578Z,21.10
2018-02-15T02:25:23.794Z,21.40
2018-02-15T02:27:51.237Z,21.33
2018-02-15T02:30:18.692Z,20.45
2018-02-15T02:32:46.135Z,20.90
2018-02-15T02:35:13.591Z,21.40
2018-02-15T02:37:41.035Z,20.10
2018-02-15T02:40:09.256Z,20.83
2018-02-15T02:42:36.711Z,18.90
2018-02-15T02:45:04.172Z,18.70
2018-02-15T02:47:31.618Z,20.23
2018-02-15T02:49:59.072Z,20.00
2018-02-15T02:52:27.271Z,18.70
2018-02-15T02:54:55.482Z,19.55
2018-02-15T02:57:22.928Z,16.83
2018-02-15T02:59:50.375Z,18.23
2018-02-15T03:02:17.814Z,18.20
2018-02-15T03:04:45.264Z,17.15
2018-02-15T03:07:12.699Z,15.10
2018-02-15T03:09:40.152Z,13.57
2018-02-15T03:12:08.355Z,13.00
2018-02-15T03:14:35.804Z,12.27
2018-02-15T03:17:03.243Z,12.83
2018-02-15T03:19:30.682Z,12.13
2018-02-15T03:21:58.892Z,12.10
2018-02-15T03:24:27.108Z,10.47
2018-02-15T03:26:54.541Z,9.70
2018-02-15T03:29:21.982Z,10.67
2018-02-15T03:31:49.419Z,10.33
2018-02-15T03:34:17.632Z,9.57
2018-02-15T03:36:45.835Z,8.97
2018-02-15T03:39:13.275Z,9.20
2018-02-15T03:41:40.710Z,11.53
2018-02-15T03:44:08.158Z,9.27
2018-02-15T03:46:36.355Z,9.27
2018-02-15T03:49:04.563Z,10.50
2018-02-15T03:51:32.766Z,9.40
2018-02-15T03:54:00.971Z,10.00
2018-02-15T03:56:28.415Z,9.90
2018-02-15T03:58:55.846Z,10.00
2018-02-15T04:01:23.289Z,9.73
2018-02-15T04:03:51.492Z,10.10
2018-02-15T04:06:19.698Z,8.77
2018-02-15T04:08:47.903Z,10.80
2018-02-15T04:11:15.339Z,9.80
2018-02-15T04:13:42.771Z,9.47
2018-02-15T04:16:10.215Z,9.80
2018-02-15T04:18:37.653Z,10.30
2018-02-15T04:21:05.097Z,9.00
2018-02-15T04:23:33.298Z,10.17
2018-02-15T04:26:01.508Z,9.50
2018-02-15T04:28:28.942Z,9.87
2018-02-15T04:30:56.391Z,10.30
2018-02-15T04:33:23.832Z,9.47
2018-02-15T04:35:52.039Z,10.13
2018-02-15T04:38:19.478Z,10.13
2018-02-15T04:40:46.927Z,8.90
2018-02-15T04:43:14.354Z,8.80
2018-02-15T04:45:41.794Z,9.30
2018-02-15T04:48:09.234Z,10.27
2018-02-15T04:50:37.439Z,9.00
2018-02-15T04:53:04.875Z,8.47
2018-02-15T04:55:32.311Z,8.57
2018-02-15T04:57:59.746Z,8.50
2018-02-15T05:00:27.179Z,9.00
2018-02-15T05:02:54.623Z,9.10
2018-02-15T05:05:22.829Z,8.87
2018-02-15T05:07:51.040Z,8.00
2018-02-15T05:10:18.471Z,8.30
2018-02-15T05:12:45.920Z,7.80
2018-02-15T05:15:13.355Z,8.57
2018-02-15T05:17:42.322Z,7.37
2018-02-15T05:20:09.764Z,6.97
2018-02-15T05:22:37.975Z,7.47
2018-02-15T05:25:05.416Z,7.90
2018-02-15T05:27:32.850Z,8.30
2018-02-15T05:30:01.195Z,7.90
2018-02-15T05:32:28.639Z,7.87
2018-02-15T05:34:56.081Z,8.10
2018-02-15T05:37:24.319Z,6.97
2018-02-15T05:39:51.759Z,7.17
2018-02-15T05:42:19.992Z,7.87
2018-02-15T05:44:47.431Z,9.10
2018-02-15T05:47:14.869Z,7.37
2018-02-15T05:49:42.315Z,8.67
2018-02-15T05:52:09.748Z,7.50
2018-02-15T05:54:37.187Z,7.37
2018-02-15T05:57:04.628Z,7.80
2018-02-15T05:59:32.071Z,6.67
2018-02-15T06:01:59.512Z,7.30
2018-02-15T06:04:26.947Z,7.00
2018-02-15T06:06:54.395Z,7.90
2018-02-15T06:09:21.830Z,8.27
2018-02-15T06:11:50.035Z,8.40
2018-02-15T06:14:18.247Z,8.57
2018-02-15T06:16:46.447Z,8.00
2018-02-15T06:19:14.651Z,7.53
2018-02-15T06:21:42.087Z,7.50
2018-02-15T06:24:09.527Z,7.17
2018-02-15T06:26:36.966Z,7.93
2018-02-15T06:29:05.184Z,7.50
2018-02-15T06:31:33.384Z,7.30
2018-02-15T06:34:00.819Z,7.37
2018-02-15T06:36:28.267Z,8.17
2018-02-15T06:38:55.698Z,6.30
2018-02-15T06:41:23.143Z,7.23
2018-02-15T06:43:50.575Z,6.70
2018-02-15T06:46:18.791Z,7.20
2018-02-15T06:48:46.223Z,7.00
2018-02-15T06:51:13.662Z,8.13
2018-02-15T06:53:41.097Z,6.10
2018-02-15T06:56:08.535Z,6.13
2018-02-15T06:58:35.972Z,5.97
2018-02-15T07:01:04.207Z,5.40
2018-02-15T07:03:31.617Z,6.07
2018-02-15T07:05:59.059Z,5.00
2018-02-15T07:08:26.492Z,5.87
2018-02-15T07:10:53.934Z,5.10
2018-02-15T07:13:21.367Z,5.80
2018-02-15T07:15:48.815Z,6.10
2018-02-15T07:18:16.247Z,5.40
2018-02-15T07:20:43.692Z,5.13
2018-02-15T07:23:11.172Z,5.73
2018-02-15T07:25:38.618Z,5.57
2018-02-15T07:28:06.828Z,5.90
2018-02-15T07:30:35.033Z,5.37
2018-02-15T07:33:03.235Z,5.83
2018-02-15T07:35:30.672Z,5.57
2018-02-15T07:37:58.111Z,4.70
2018-02-15T07:40:25.547Z,4.80
2018-02-15T07:42:52.996Z,5.83
2018-02-15T07:45:20.431Z,5.90
2018-02-15T07:47:47.879Z,5.40
2018-02-15T07:50:15.324Z,5.77
2018-02-15T07:52:42.762Z,4.57
2018-02-15T07:55:10.203Z,5.53
2018-02-15T07:57:37.651Z,5.67
2018-02-15T08:00:05.088Z,5.07
2018-02-15T08:02:32.536Z,5.33
2018-02-15T08:05:00.740Z,5.10
2018-02-15T08:07:28.940Z,4.03
2018-02-15T08:09:57.139Z,4.97
2018-02-15T08:12:25.355Z,5.17
2018-02-15T08:14:52.790Z,5.03
2018-02-15T08:17:21.006Z,4.70
2018-02-15T08:19:48.439Z,4.90
2018-02-15T08:22:15.883Z,5.00
2018-02-15T08:24:43.314Z,4.80
2018-02-15T08:27:10.779Z,4.27
2018-02-15T08:29:38.963Z,4.20
2018-02-15T08:32:07.173Z,5.47
2018-02-15T08:34:35.379Z,3.97
2018-02-15T08:37:03.578Z,4.80
2018-02-15T08:39:31.788Z,4.97
2018-02-15T08:41:59.984Z,4.90
2018-02-15T08:44:28.191Z,4.80
2018-02-15T08:46:56.391Z,4.30
2018-02-15T08:49:24.599Z,4.97
2018-02-15T08:51:52.807Z,3.77
2018-02-15T08:54:20.250Z,4.33
2018-02-15T08:56:47.684Z,3.57
2018-02-15T08:59:15.883Z,3.80
2018-02-15T09:01:44.083Z,3.40
2018-02-15T09:04:12.299Z,4.30
2018-02-15T09:06:39.741Z,3.93
2018-02-15T09:09:07.178Z,4.77
2018-02-15T09:11:34.610Z,4.77
2018-02-15T09:14:02.050Z,4.70
2018-02-15T09:16:29.483Z,3.97
2018-02-15T09:18:56.931Z,4.13
2018-02-15T09:21:24.354Z,4.47
2018-02-15T09:23:51.802Z,3.97
2018-02-15T09:26:19.248Z,4.20
2018-02-15T09:28:47.447Z,3.53
2018-02-15T09:31:15.662Z,4.03
2018-02-15T09:33:43.859Z,4.30
2018-02-15T09:36:11.290Z,4.10
2018-02-15T09:38:38.730Z,4.00
2018-02-15T09:41:06.163Z,3.93
2018-02-15T09:43:33.595Z,4.00
2018-02-15T09:46:01.031Z,3.57
2018-02-15T10:25:17.219Z,4.30
2018-02-15T10:27:44.651Z,4.68
2018-02-15T10:30:12.866Z,4.90
2018-02-15T10:32:40.307Z,5.30
2018-02-15T10:35:07.739Z,4.20
2018-02-15T10:37:35.183Z,4.50
2018-02-15T10:40:02.627Z,4.00
2018-02-15T10:42:30.059Z,4.15
2018-02-15T10:44:57.535Z,4.70
2018-02-15T10:47:24.938Z,4.40
2018-02-15T10:49:52.359Z,4.10
2018-02-15T10:52:19.805Z,4.30
2018-02-15T10:54:47.239Z,5.40
2018-02-15T10:57:14.678Z,4.80
2018-02-15T10:59:42.112Z,5.07
2018-02-15T11:02:15.443Z,4.03
2018-02-15T11:04:48.659Z,4.60
2018-02-15T11:39:11.657Z,3.30
2018-02-15T11:41:39.810Z,3.00
2018-02-15T11:44:08.115Z,3.50
2018-02-15T11:46:36.303Z,4.20
2018-02-15T11:49:03.755Z,2.80
2018-02-15T11:51:31.179Z,3.73
2018-02-15T11:53:58.620Z,3.97
2018-02-15T11:56:26.048Z,3.87
2018-02-15T11:58:53.478Z,4.27
2018-02-15T12:01:20.919Z,4.50
2018-02-15T12:03:49.128Z,5.10
2018-02-15T12:06:17.319Z,5.00
2018-02-15T12:08:44.823Z,5.10
2018-02-15T12:11:13.022Z,5.70
2018-02-15T12:13:40.468Z,5.37
2018-02-15T12:16:07.905Z,5.90
2018-02-15T12:18:35.351Z,6.37
2018-02-15T12:21:03.547Z,6.37
2018-02-15T12:23:30.987Z,6.05
2018-02-15T12:25:58.427Z,8.52
2018-02-15T12:28:25.867Z,11.20
2018-02-15T12:30:53.303Z,8.70
2018-02-15T12:33:21.509Z,9.23
2018-02-15T12:35:49.720Z,7.45
2018-02-15T12:38:17.171Z,6.30
2018-02-15T12:40:44.614Z,6.68
2018-02-15T12:43:12.827Z,7.32
2018-02-15T12:45:40.272Z,6.40
2018-02-15T12:48:07.702Z,6.70
2018-02-15T12:50:35.139Z,6.68
2018-02-15T12:53:02.572Z,6.47
2018-02-15T12:55:30.013Z,7.03
2018-02-15T12:57:57.443Z,5.80
2018-02-15T13:00:24.883Z,5.20
2018-02-15T13:02:52.315Z,5.77
2018-02-15T13:05:20.527Z,6.30
2018-02-15T13:07:47.959Z,5.20
2018-02-15T13:10:15.417Z,6.82
2018-02-15T13:15:58.528Z,7.62
2018-02-15T13:18:25.969Z,7.50
2018-02-15T13:20:54.171Z,7.62
2018-02-15T13:23:21.659Z,8.00
2018-02-15T13:25:49.051Z,8.50
2018-02-15T13:28:28.509Z,6.40
2018-02-15T13:30:55.956Z,7.82
2018-02-15T13:33:23.390Z,6.72
2018-02-15T13:35:50.828Z,5.47
2018-02-15T13:38:19.033Z,6.50
2018-02-15T13:40:47.260Z,8.47
2018-02-15T13:43:14.687Z,8.23
2018-02-15T13:45:42.115Z,8.23
2018-02-15T13:48:09.555Z,15.70
2018-02-15T13:50:36.991Z,13.13
2018-02-15T13:53:04.443Z,10.20
2018-02-15T13:55:31.884Z,10.33
2018-02-15T13:57:59.411Z,6.37
2018-02-15T14:00:27.603Z,6.13
2018-02-15T14:39:42.288Z,7.60
2018-02-15T14:42:09.726Z,6.33
2018-02-15T14:44:37.158Z,6.27
2018-02-15T14:47:04.609Z,6.17
2018-02-15T14:49:32.045Z,5.57
2018-02-15T14:51:59.482Z,6.40
2018-02-15T14:54:26.917Z,5.20
2018-02-15T14:56:54.357Z,5.53
2018-02-15T14:59:21.816Z,5.67
2018-02-15T15:01:49.252Z,6.87
2018-02-15T15:04:17.445Z,5.20
2018-02-15T15:06:45.653Z,5.43
2018-02-15T15:09:13.844Z,5.53
2018-02-15T15:11:42.060Z,5.73
2018-02-15T15:14:10.254Z,5.60
2018-02-15T15:16:38.459Z,5.80
2018-02-15T15:19:05.883Z,5.40
2018-02-15T15:21:34.079Z,5.67
2018-02-15T15:24:01.516Z,5.23
2018-02-15T15:26:29.716Z,4.97
2018-02-15T15:28:57.927Z,4.80
2018-02-15T15:31:25.356Z,5.23
2018-02-15T15:33:52.791Z,4.87
2018-02-15T15:36:20.222Z,4.50
2018-02-15T15:38:47.658Z,5.40
2018-02-15T15:41:15.091Z,5.47
2018-02-15T15:43:42.527Z,4.80
2018-02-15T15:46:09.955Z,5.63
2018-02-15T15:48:37.391Z,5.60
2018-02-15T15:51:04.816Z,5.53
2018-02-15T15:53:32.265Z,5.37
2018-02-15T15:55:59.695Z,5.17
2018-02-15T15:58:27.905Z,6.10
2018-02-15T16:00:56.121Z,7.47
2018-02-15T16:03:23.550Z,9.63
2018-02-15T16:05:50.979Z,8.60
2018-02-15T16:08:18.410Z,7.00
2018-02-15T16:10:45.836Z,6.47
2018-02-15T16:13:13.271Z,6.10
2018-02-15T16:15:40.696Z,6.53
2018-02-15T16:18:08.139Z,6.53
2018-02-15T16:20:35.563Z,8.00
2018-02-15T16:23:03.004Z,7.50
2018-02-15T16:25:30.435Z,7.00
2018-02-15T16:27:57.876Z,7.50
2018-02-15T16:30:26.075Z,11.82
2018-02-15T16:32:54.295Z,12.50
2018-02-15T16:35:21.736Z,13.70
2018-02-15T16:37:49.187Z,14.60
2018-02-15T16:40:16.627Z,15.05
2018-02-15T16:42:44.066Z,15.55
2018-02-15T16:45:11.505Z,11.67
2018-02-15T16:47:38.946Z,10.40
2018-02-15T16:50:07.150Z,17.02
2018-02-15T16:52:35.468Z,20.92
2018-02-15T16:55:03.660Z,21.08
2018-02-15T16:57:31.102Z,20.00
2018-02-15T16:59:58.552Z,22.20
2018-02-15T17:02:26.000Z,18.48
2018-02-15T17:04:53.443Z,17.20
2018-02-15T17:07:20.877Z,17.23
2018-02-15T17:09:48.325Z,16.20
2018-02-15T17:12:15.765Z,16.83
2018-02-15T17:14:43.207Z,16.00
2018-02-15T17:17:11.411Z,18.50
2018-02-15T17:19:38.859Z,18.50
2018-02-15T17:22:06.299Z,20.15
2018-02-15T17:24:33.752Z,23.60
2018-02-15T17:27:01.195Z,22.60
2018-02-15T17:29:28.631Z,22.23
2018-02-15T17:31:56.079Z,22.87
2018-02-15T17:34:24.299Z,23.52
2018-02-15T17:36:51.741Z,21.42
2018-02-15T17:39:19.191Z,21.10
2018-02-15T17:41:47.403Z,19.33
2018-02-15T17:44:14.852Z,18.50
2018-02-15T17:46:42.288Z,20.25
2018-02-15T17:49:09.736Z,14.50
2018-02-15T17:51:37.177Z,15.87
2018-02-15T17:54:04.620Z,13.60
2018-02-15T17:56:32.056Z,13.00
2018-02-15T17:58:59.507Z,12.27
2018-02-15T18:01:27.712Z,18.30
2018-02-15T18:03:55.154Z,17.47
2018-02-15T18:06:22.608Z,23.05
2018-02-15T18:08:50.048Z,21.60
2018-02-15T18:11:18.255Z,20.88
2018-02-15T18:13:45.719Z,22.13
2018-02-15T18:16:13.929Z,25.30
2018-02-15T18:18:41.367Z,22.50
2018-02-15T18:21:08.815Z,24.08
2018-02-15T18:23:36.519Z,21.10
2018-02-15T18:26:04.728Z,23.05
2018-02-15T18:28:32.931Z,16.63
2018-02-15T18:31:01.135Z,11.03
2018-02-15T18:33:28.578Z,12.30
2018-02-15T18:35:56.021Z,15.37
2018-02-15T18:38:23.450Z,14.50
2018-02-15T18:40:51.672Z,14.43
2018-02-15T18:43:19.107Z,16.27
2018-02-15T18:45:46.559Z,17.87
2018-02-15T18:48:14.007Z,21.70
2018-02-15T18:50:42.214Z,19.40
2018-02-15T18:53:10.412Z,20.80
2018-02-15T18:55:37.851Z,23.33
2018-02-15T18:58:05.292Z,20.47
2018-02-15T19:00:32.748Z,22.87
2018-02-15T19:03:00.943Z,22.53
2018-02-15T19:05:29.155Z,25.70
2018-02-15T19:07:56.587Z,23.73
2018-02-15T19:10:24.032Z,26.80
2018-02-15T19:12:51.475Z,21.97
2018-02-15T19:39:50.363Z,23.07
2018-02-15T20:56:17.455Z,19.70
2018-02-15T20:58:44.907Z,36.05
2018-02-15T21:01:12.347Z,40.50
2018-02-15T21:03:39.804Z,40.70
2018-02-15T21:06:08.014Z,34.85
2018-02-15T21:08:36.215Z,39.20
2018-02-15T21:11:03.659Z,41.92
2018-02-15T21:13:31.103Z,42.55
2018-02-15T21:15:58.547Z,49.15
2018-02-15T21:18:26.751Z,44.93
2018-02-15T21:20:54.972Z,42.67
2018-02-15T21:23:22.419Z,45.20
2018-02-15T21:25:50.636Z,42.05
2018-02-15T21:28:18.074Z,43.42
2018-02-15T21:30:45.527Z,46.25
2018-02-15T21:33:12.954Z,37.63
2018-02-15T21:35:41.163Z,43.23
2018-02-15T21:38:09.363Z,45.85
2018-02-15T21:40:38.323Z,44.08
2018-02-15T21:43:05.795Z,39.60
2018-02-15T21:45:33.246Z,39.85
2018-02-15T21:48:01.456Z,38.07
2018-02-15T21:50:28.906Z,37.22
2018-02-15T21:52:56.344Z,34.92
2018-02-15T21:55:23.783Z,37.10
2018-02-15T21:57:51.999Z,31.73
2018-02-15T22:00:19.443Z,34.70
2018-02-15T22:02:46.890Z,35.97
2018-02-15T22:05:14.347Z,37.95
2018-02-15T22:07:41.785Z,37.63
2018-02-15T22:10:09.228Z,36.78
2018-02-15T22:12:36.672Z,34.80
2018-02-15T22:15:04.128Z,32.63
2018-02-15T22:17:31.551Z,29.17
2018-02-15T22:19:58.996Z,27.40
2018-02-15T22:22:27.202Z,22.30
2018-02-15T22:24:55.411Z,25.43
2018-02-15T22:27:22.849Z,28.30
2018-02-15T22:29:50.343Z,39.90
2018-02-15T22:32:17.779Z,40.10
2018-02-15T22:34:45.223Z,28.40
2018-02-15T22:37:13.429Z,23.43
2018-02-15T22:39:41.631Z,21.43
2018-02-15T22:42:09.080Z,24.00
2018-02-15T22:44:36.519Z,21.97
2018-02-15T22:47:03.966Z,20.03
2018-02-15T22:49:32.167Z,17.73
2018-02-15T22:51:59.619Z,20.00
2018-02-15T22:54:27.055Z,21.10
2018-02-15T22:56:54.504Z,20.57
2018-02-15T22:59:22.700Z,23.37
2018-02-15T23:01:50.912Z,22.07
2018-02-15T23:04:18.347Z,23.33
2018-02-15T23:06:45.786Z,20.70
2018-02-15T23:09:13.227Z,19.20
2018-02-15T23:11:40.678Z,25.07
2018-02-15T23:14:08.116Z,25.47
2018-02-15T23:16:35.560Z,24.00
2018-02-15T23:19:02.996Z,26.37
2018-02-15T23:21:30.439Z,39.90
2018-02-15T23:23:58.636Z,31.30
2018-02-15T23:26:26.860Z,22.70
2018-02-15T23:28:54.286Z,22.47
2018-02-15T23:31:21.723Z,21.57
2018-02-15T23:33:49.183Z,34.83
2018-02-15T23:36:17.396Z,39.45
2018-02-15T23:38:44.855Z,28.50
2018-02-15T23:41:13.053Z,24.33
2018-02-15T23:43:41.268Z,21.80
2018-02-15T23:46:08.694Z,20.97
2018-02-15T23:48:36.153Z,25.50
2018-02-15T23:51:03.611Z,26.17
2018-02-15T23:53:31.068Z,25.13
2018-02-15T23:55:59.508Z,27.80
2018-02-15T23:58:26.956Z,25.30
